Flugplatz Dresden

Bericht für EDDC

vom 11.05. um 20:20 UTC

Wind 6 kt aus 320°

Sichtweite 10 km oder mehr

schwacher Regenschauer

gering bewölkt in 1800 ft

aufgelockert bewölkt in 4000 ft

Temperatur 16.0°C

Taupunkt 14.0°C

Luftfeuchtigkeit 88%

Luftdruck 1005 hPa

EDDC 112020Z 32006KT 270V360 9999 -SHRA FEW018 SCT040CB 16/14 Q1005 RESHRA

Prognose für EDDC

vom 11.05. um 17:00 UTC

Zwischen 18:00 UTC und 20:00 UTC

Wind 10 kt aus 290°

Sichtweite 10 km oder mehr

keine signifikanten Wettererscheinungen

keine Wolken


Zwischen 18:00 UTC und 23:00 UTC zeitweise mit einer Wahrscheinlichkeit von 30%

Wind 15 kt aus 310° in Böen 25 kt

Code: TSRA

aufgebrochene Bewölkung in 1400 ft


Zwischen 20:00 und 23:00 UTC übergehend zu

Wind 10 kt aus 290°

Sichtweite 10 km oder mehr

keine signifikanten Wettererscheinungen

aufgebrochene Bewölkung in 1200 ft


Zwischen 22:00 UTC und 06:00 UTC zeitweise

Sichtweite 4000 m

schwacher Sprühregen

feuchter Dunst

aufgebrochene Bewölkung in 600 ft


Am 12.05. zwischen 11:00 UTC und 18:00 UTC zeitweise

Sichtweite 3500 m

Regen

Sprühregen

aufgebrochene Bewölkung in 500 ft

TAF EDDC 111700Z 1118/1218 29010KT CAVOK PROB30 TEMPO 1118/1123 31015G25KT TSRA BKN014CB BECMG 1120/1123 BKN012 TEMPO 1122/1206 4000 -DZ BR BKN006 TEMPO 1211/1218 3500 RADZ BKN005
Impressum